Latest Coastal Weather Observations for Gabo Island

IDT60701

Issued at 2:22 pm EST Tuesday 26 May 2020 (issued every 10 minutes, with the page automatically refreshed every 10 minutes)

About coastal observations | Map of coastal stations | Coastal observations for TAS | Marine services | Other Formats
Station Details ID: 084016 Name: GABO ISLAND LIGHTHOUSE Lat: -37.57 Lon: 149.92 Height: 15.0 m
Data from the previous 72 hours. | See also: Recent months at Gabo Island
Date/Time
EST
Wind Sea
Height
m
Swell Vis
km
Cloud Weather Temp
°C
Press
hPa
Rain since
9am
mm
Dir  Spd
kts
Gust
kts
Height
m
Period
s
Dir
26/02:00pm WSW 7 8 - - - - - - - 15.2 1025.4 0.0
26/01:30pm SW 9 11 - - - - - - - 15.1 1025.5 0.0
26/01:00pm WSW 9 11 - - - - - - - 15.1 1025.8 0.0
26/12:30pm W 7 9 - - - - - - - 14.7 1026.0 0.0
26/12:00pm W 8 10 - - - - - - - 14.4 1026.4 0.0
26/11:30am W 8 10 - - - - - - - 14.2 1026.7 0.0
26/11:00am W 9 11 - - - - - - - 13.7 1027.2 0.0
26/10:30am W 10 11 - - - - - - - 13.5 1027.4 0.0
26/10:00am W 9 11 - - - - - - - 13.1 1027.4 0.0
26/09:30am WNW 9 11 - - - - - - - 12.9 1027.2 0.0
26/09:00am WNW 9 11 1 1.5 10 E 25 Mostly cloudy Fine 12.6 1027.2 2.6
26/08:30am W 11 13 - - - - - - - 12.5 1027.1 2.6
26/08:00am WNW 8 11 - - - - - - - 12.6 1026.9 2.6
26/07:30am WNW 11 14 - - - - - - - 12.3 1026.8 2.6
26/07:00am NW 9 12 - - - - - - - 12.2 1026.6 2.6
26/06:30am NW 9 11 - - - - - - - 12.5 1026.4 2.4
26/06:00am S 6 8 - - - - - - - 13.4 1026.3 0.8
26/05:30am NW 7 11 - - - - - - - 12.8 1026.1 0.2
26/05:00am E 5 9 - - - - - - - 13.2 1025.8 0.2
26/04:30am SE 9 13 - - - - - - - 14.4 1025.5 0.2
26/04:00am S 10 14 - - - - - - - 14.5 1025.2 0.2
26/03:30am SSW 10 12 - - - - - - - 13.9 1025.4 0.2
26/03:00am SSE 13 17 2 2.0 9 SE 20 Cloudy Fine 14.2 1025.6 0.2
26/02:30am S 14 17 - - - - - - - 14.8 1025.8 0.0
26/02:00am S 12 16 - - - - - - - 14.8 1025.8 0.0
26/01:30am S 13 16 - - - - - - - 14.3 1026.0 0.0
26/01:00am SSW 12 15 - - - - - - - 14.5 1026.0 0.0
26/12:30am S 14 20 - - - - - - - 15.0 1026.1 0.0
26/12:00am SSW 14 19 - - - - - - - 15.0 1026.0 0.0
 
Date/Time
EST
Wind Sea
Height
m
Swell Vis
km
Cloud Weather Temp
°C
Press
hPa
Rain since
9am
mm
Dir  Spd
kts
Gust
kts
Height
m
Period
s
Dir
25/11:30pm S 13 17 - - - - - - - 15.3 1026.1 0.0
25/11:00pm S 12 16 - - - - - - - 15.3 1026.0 0.0
25/10:30pm S 17 19 - - - - - - - 15.3 1025.9 0.0
25/10:00pm S 11 14 - - - - - - - 15.4 1025.7 0.0
25/09:30pm S 12 15 - - - - - - - 15.3 1025.6 0.0
25/09:00pm S 11 15 3 2.5 9 SE 20 Cloudy Fine 15.4 1025.4 0.0
25/08:30pm S 15 18 - - - - - - - 15.2 1025.4 0.0
25/08:00pm S 12 18 - - - - - - - 15.3 1025.4 0.0
25/07:30pm SSE 18 21 - - - - - - - 14.7 1025.1 0.0
25/07:00pm S 17 20 - - - - - - - 15.4 1024.6 0.0
25/06:30pm S 15 19 - - - - - - - 15.1 1024.4 0.0
25/06:00pm SSW 12 14 - - - - - - - 14.3 1024.0 0.0
25/05:30pm S 19 23 - - - - - - - 15.0 1023.5 0.0
25/05:00pm S 15 23 - - - - - - - 14.8 1023.4 0.0
25/04:30pm SSW 18 21 - - - - - - - 15.0 1023.4 0.0
25/04:00pm S 18 25 - - - - - - - 15.0 1023.5 0.0
25/03:30pm S 19 23 - - - - - - - 15.3 1023.3 0.0
25/03:00pm S 19 23 3 2.5 9 SE 25 Mostly cloudy Fine 15.6 1023.2 0.0
25/02:30pm S 19 22 - - - - - - - 15.4 1023.0 0.0
25/02:00pm S 19 24 - - - - - - - 15.5 1022.8 0.0
25/01:30pm S 17 21 - - - - - - - 15.5 1022.9 0.0
25/01:00pm S 19 24 - - - - - - - 15.0 1022.9 0.0
25/12:30pm SSW 20 24 - - - - - - - 14.3 1023.1 0.0
25/12:00pm SSW 21 25 - - - - - - - 14.6 1023.1 0.0
25/11:30am S 23 26 - - - - - - - 14.7 1023.4 0.0
25/11:00am SSW 19 23 - - - - - - - 14.0 1023.4 0.0
25/10:30am S 23 29 - - - - - - - 14.1 1023.4 0.0
25/10:15am S 21 31 - - - - - - - 14.7 1023.2 0.0
25/10:00am S 22 27 - - - - - - - 15.5 1023.2 0.0
25/09:30am S 24 29 - - - - - - - 14.6 1022.9 0.0
25/09:00am S 24 28 3 3.0 9 SE 10 Cloudy Distant precip. 14.2 1022.8 2.4
25/08:30am S 24 30 - - - - - - - 14.1 1022.4 2.4
25/08:00am S 24 29 - - - - - - - 14.0 1022.3 2.4
25/07:30am SSW 24 27 - - - - - - - 13.8 1022.0 2.4
25/07:03am S 19 30 - - - - - - - 14.1 1021.6 2.4
25/07:00am S 19 25 - - - - - - - 13.8 1021.6 2.4
25/06:30am S 20 25 - - - - - - - 14.6 1021.1 2.4
25/06:00am S 26 30 - - - - - - - 14.4 1020.7 2.4
25/05:30am S 24 29 - - - - - - - 14.2 1020.3 2.4
25/05:00am S 23 30 - - - - - - - 13.5 1020.2 2.0
25/04:30am S 29 34 - - - - - - - 14.0 1020.0 2.0
25/04:23am S 23 33 - - - - - - - 14.1 1020.1 2.0
25/04:00am SSW 25 30 - - - - - - - 14.0 1020.2 2.0
25/03:30am S 21 29 - - - - - - - 14.5 1019.9 2.0
25/03:00am S 27 33 5 4.0 9 S 20 Mostly cloudy Recent precip. 14.0 1020.0 2.0
25/02:50am S 27 37 - - - - - - - 14.2 1019.8 2.0
25/02:30am S 24 29 - - - - - - - 14.6 1019.8 2.0
25/02:00am SSW 26 31 - - - - - - - 14.0 1019.8 2.0
25/01:30am S 27 38 - - - - - - - 13.2 1020.0 1.8
25/01:26am S 23 34 - - - - - - - 14.5 1019.8 1.6
25/01:00am S 25 30 - - - - - - - 14.2 1019.7 1.6
25/12:30am S 27 32 - - - - - - - 13.8 1019.9 1.6
25/12:00am SSW 25 31 - - - - - - - 14.4 1019.5 1.6
 
Date/Time
EST
Wind Sea
Height
m
Swell Vis
km
Cloud Weather Temp
°C
Press
hPa
Rain since
9am
mm
Dir  Spd
kts
Gust
kts
Height
m
Period
s
Dir
24/11:30pm S 23 28 - - - - - - - 14.1 1019.4 1.6
24/11:00pm SSW 24 29 - - - - - - - 13.6 1019.6 1.6
24/10:30pm S 26 33 - - - - - - - 13.2 1019.8 1.6
24/10:00pm S 21 26 - - - - - - - 13.8 1019.4 1.6
24/09:53pm S 22 32 - - - - - - - 13.0 1019.4 1.6
24/09:30pm S 21 29 - - - - - - - 12.9 1019.4 1.4
24/09:01pm SSW 23 33 - - - - - - - 13.4 1019.3 0.8
24/09:00pm SSW 23 27 5 4.0 9 S 15 Cloudy Fine 13.9 1019.3 0.8
24/08:40pm SSW 23 33 - - - - - - - 13.5 1019.1 0.8
24/08:30pm SSW 24 32 - - - - - - - 13.9 1018.9 0.8
24/08:27pm SSW 22 32 - - - - - - - 14.4 1018.9 0.8
24/08:00pm SSW 26 32 - - - - - - - 14.2 1018.8 0.8
24/07:30pm S 26 31 - - - - - - - 14.5 1018.5 0.8
24/07:00pm S 25 31 - - - - - - - 14.4 1018.3 0.8
24/06:40pm SSW 26 36 - - - - - - - 14.4 1018.0 0.8
24/06:30pm SSW 25 30 - - - - - - - 14.0 1018.0 0.8
24/06:00pm S 28 34 - - - - - - - 14.2 1017.9 0.8
24/05:30pm SSW 26 36 - - - - - - - 14.1 1017.4 0.8
24/05:22pm SSW 25 36 - - - - - - - 14.0 1017.3 0.8
24/05:00pm SSW 29 34 - - - - - - - 13.3 1017.1 0.8
24/04:30pm S 28 33 - - - - - - - 14.3 1016.7 0.8
24/04:00pm S 28 35 - - - - - - - 14.4 1016.3 0.8
24/03:30pm SSW 27 34 - - - - - - - 13.3 1016.4 0.4
24/03:00pm SW 25 30 5 4.0 9 S 10 Mostly cloudy Showers 13.3 1016.2 0.2
24/02:30pm SW 25 30 - - - - - - - 13.2 1016.1 0.0
24/02:00pm SW 26 31 - - - - - - - 13.5 1016.1 0.0
24/01:30pm SSW 28 34 - - - - - - - 14.6 1016.0 0.0
24/01:00pm SSW 27 32 - - - - - - - 14.8 1016.0 0.0
24/12:37pm SSW 25 35 - - - - - - - 14.6 1016.2 0.0
24/12:30pm SSW 27 35 - - - - - - - 14.2 1016.3 0.0
24/12:00pm SSW 25 31 - - - - - - - 15.4 1016.3 0.0
24/11:30am SSW 26 31 - - - - - - - 15.4 1016.6 0.0
24/11:00am SSW 29 35 - - - - - - - 15.1 1016.6 0.0
24/10:30am SSW 27 32 - - - - - - - 15.0 1016.7 0.0
24/10:00am SSW 29 35 - - - - - - - 14.9 1016.5 0.0
24/09:30am SSW 27 32 - - - - - - - 15.1 1016.3 0.0
24/09:00am SSW 29 34 5 4.0 9 S 20 Mostly cloudy Fine 15.1 1015.9 28.4
24/08:30am SSW 26 31 - - - - - - - 14.8 1015.7 28.4
24/08:00am SSW 26 31 - - - - - - - 15.1 1015.4 28.4
24/07:30am SSW 30 36 - - - - - - - 14.6 1015.0 28.4
24/07:00am SSW 29 36 - - - - - - - 14.4 1014.6 28.4
24/06:30am SSW 33 42 - - - - - - - 14.6 1014.1 28.4
24/06:22am SSW 31 42 - - - - - - - 14.7 1013.8 28.4
24/06:00am SSW 30 36 - - - - - - - 14.9 1013.8 28.2
24/05:30am SSW 31 39 - - - - - - - 14.8 1013.2 28.2
24/05:00am SSW 31 40 - - - - - - - 13.9 1013.1 28.2
24/04:40am SSW 32 42 - - - - - - - 13.6 1012.8 27.6
24/04:30am SSW 33 39 - - - - - - - 13.4 1012.9 27.6
24/04:24am SSW 31 39 - - - - - - - 13.8 1012.7 27.0
24/04:00am SSW 24 35 - - - - - - - 14.0 1012.4 26.8
24/03:46am SSW 27 37 - - - - - - - 13.8 1012.7 26.2
24/03:30am SSW 29 37 - - - - - - - 13.8 1012.3 25.0
24/03:00am SSW 28 33 5 4.0 8 S 2 Mostly cloudy Recent precip. 14.1 1012.2 24.4
24/02:45am SW 26 36 - - - - - - - 14.2 1012.4 24.0
24/02:30am SSW 27 32 - - - - - - - 14.7 1012.3 23.6
24/02:00am SSW 26 35 - - - - - - - 14.6 1012.4 23.4
24/01:30am SW 25 32 - - - - - - - 14.3 1012.4 23.4
24/01:00am SSW 28 33 - - - - - - - 14.5 1012.3 23.4
24/12:30am SSW 29 35 - - - - - - - 15.1 1011.9 23.4
24/12:16am SSW 29 39 - - - - - - - 14.8 1012.0 23.4
24/12:00am SSW 30 36 - - - - - - - 14.7 1012.0 23.4
 
Date/Time
EST
Wind Sea
Height
m
Swell Vis
km
Cloud Weather Temp
°C
Press
hPa
Rain since
9am
mm
Dir  Spd
kts
Gust
kts
Height
m
Period
s
Dir
23/11:30pm SSW 30 34 - - - - - - - 14.1 1011.9 23.2
23/11:00pm SW 28 35 - - - - - - - 13.9 1012.1 22.6
23/10:35pm SW 29 39 - - - - - - - 14.1 1011.9 22.6
23/10:30pm SW 29 35 - - - - - - - 14.2 1011.8 22.6
23/10:00pm SW 31 39 - - - - - - - 14.0 1011.7 22.4
23/09:30pm SW 32 38 - - - - - - - 13.9 1011.7 22.4
23/09:00pm SSW 30 37 5 5.0 8 S 1 Cloudy Recent precip. 13.8 1011.7 22.2
23/08:30pm SW 30 36 - - - - - - - 13.5 1011.5 22.0
23/08:00pm SW 32 40 - - - - - - - 13.2 1011.2 21.2
23/07:30pm SW 33 41 - - - - - - - 13.0 1011.0 20.8
23/07:00pm SW 34 42 - - - - - - - 12.9 1010.6 20.4
23/06:43pm SW 32 43 - - - - - - - 12.9 1010.5 20.0
23/06:30pm SW 34 42 - - - - - - - 12.9 1010.4 20.0
23/06:00pm SW 35 43 - - - - - - - 12.9 1010.0 19.6
23/05:30pm SW 34 43 - - - - - - - 12.9 1009.7 19.4
23/05:00pm SW 34 43 - - - - - - - 12.7 1009.7 18.8
23/04:30pm SW 35 42 - - - - - - - 12.7 1009.5 18.2
23/04:00pm SW 33 40 - - - - - - - 12.9 1009.3 17.6
23/03:30pm SW 35 44 - - - - - - - 12.8 1009.1 16.6
23/03:00pm SW 35 45 5 5.0 8 S 0.5 Cloudy Rain 12.6 1009.0 15.4
23/02:38pm WSW 33 45 - - - - - - - 12.6 1009.0 14.0
23/02:30pm SW 34 41 - - - - - - - 12.6 1009.0 13.4

Other formats

Comma delimited format used in spreadsheet applications
http://www.bom.gov.au/fwo/IDT60701/IDT60701.94933.axf

JavaScript Object Notation format (JSON) in row-major order
http://www.bom.gov.au/fwo/IDT60701/IDT60701.94933.json

Data quality

Most of these data are generated automatically and are frequently updated. Quality checks on data are not normally performed. It is possible for incorrect values to appear. Refer to information at About Latest Weather Observations and please check the disclaimer before using these data.